sensor_id;sensor_type;location;lat;lon;timestamp;P1;durP1;ratioP1;P2;durP2;ratioP2
16294;SDS011;8255;49.560;8.244;2023-05-10T00:02:00;1.63;;;1.52;;
16294;SDS011;8255;49.560;8.244;2023-05-10T00:04:28;1.52;;;1.42;;
16294;SDS011;8255;49.560;8.244;2023-05-10T00:06:55;1.52;;;1.42;;
16294;SDS011;8255;49.560;8.244;2023-05-10T00:09:21;1.48;;;1.48;;
16294;SDS011;8255;49.560;8.244;2023-05-10T00:11:47;1.80;;;1.70;;
16294;SDS011;8255;49.560;8.244;2023-05-10T00:14:14;1.33;;;1.33;;
16294;SDS011;8255;49.560;8.244;2023-05-10T00:16:40;1.65;;;1.60;;
16294;SDS011;8255;49.560;8.244;2023-05-10T00:19:06;1.75;;;1.65;;
16294;SDS011;8255;49.560;8.244;2023-05-10T00:21:34;1.60;;;1.60;;
16294;SDS011;8255;49.560;8.244;2023-05-10T00:24:00;1.58;;;1.58;;
16294;SDS011;8255;49.560;8.244;2023-05-10T00:26:27;1.50;;;1.50;;
16294;SDS011;8255;49.560;8.244;2023-05-10T00:28:55;1.80;;;1.70;;
16294;SDS011;8255;49.560;8.244;2023-05-10T00:31:21;2.25;;;1.50;;
16294;SDS011;8255;49.560;8.244;2023-05-10T00:33:49;1.98;;;1.70;;
16294;SDS011;8255;49.560;8.244;2023-05-10T00:36:15;1.75;;;1.65;;
16294;SDS011;8255;49.560;8.244;2023-05-10T00:38:43;1.90;;;1.80;;
16294;SDS011;8255;49.560;8.244;2023-05-10T00:41:09;2.88;;;1.88;;
16294;SDS011;8255;49.560;8.244;2023-05-10T00:43:38;1.77;;;1.67;;
16294;SDS011;8255;49.560;8.244;2023-05-10T00:46:04;1.88;;;1.77;;
16294;SDS011;8255;49.560;8.244;2023-05-10T00:48:31;3.72;;;2.10;;
16294;SDS011;8255;49.560;8.244;2023-05-10T00:50:57;1.90;;;1.90;;
16294;SDS011;8255;49.560;8.244;2023-05-10T00:53:24;2.40;;;1.90;;
16294;SDS011;8255;49.560;8.244;2023-05-10T00:55:51;2.00;;;2.00;;
16294;SDS011;8255;49.560;8.244;2023-05-10T00:58:18;1.85;;;1.85;;
16294;SDS011;8255;49.560;8.244;2023-05-10T01:00:44;2.25;;;1.90;;
16294;SDS011;8255;49.560;8.244;2023-05-10T01:03:11;2.00;;;1.90;;
16294;SDS011;8255;49.560;8.244;2023-05-10T01:05:38;1.95;;;1.85;;
16294;SDS011;8255;49.560;8.244;2023-05-10T01:08:04;1.85;;;1.60;;
16294;SDS011;8255;49.560;8.244;2023-05-10T01:10:31;1.75;;;1.70;;
16294;SDS011;8255;49.560;8.244;2023-05-10T01:12:59;1.88;;;1.67;;
16294;SDS011;8255;49.560;8.244;2023-05-10T01:15:25;1.90;;;1.80;;
16294;SDS011;8255;49.560;8.244;2023-05-10T01:17:52;1.80;;;1.70;;
16294;SDS011;8255;49.560;8.244;2023-05-10T01:20:18;1.90;;;1.80;;
16294;SDS011;8255;49.560;8.244;2023-05-10T01:22:50;1.58;;;1.58;;
16294;SDS011;8255;49.560;8.244;2023-05-10T01:33:29;3.08;;;1.60;;
16294;SDS011;8255;49.560;8.244;2023-05-10T01:35:58;1.60;;;1.60;;
16294;SDS011;8255;49.560;8.244;2023-05-10T01:38:28;1.70;;;1.60;;
16294;SDS011;8255;49.560;8.244;2023-05-10T01:40:57;1.67;;;1.60;;
16294;SDS011;8255;49.560;8.244;2023-05-10T01:43:28;1.50;;;1.50;;
16294;SDS011;8255;49.560;8.244;2023-05-10T01:45:58;1.90;;;1.88;;
16294;SDS011;8255;49.560;8.244;2023-05-10T01:48:25;1.85;;;1.75;;
16294;SDS011;8255;49.560;8.244;2023-05-10T01:50:55;2.03;;;1.60;;
16294;SDS011;8255;49.560;8.244;2023-05-10T01:53:22;1.77;;;1.67;;
16294;SDS011;8255;49.560;8.244;2023-05-10T01:55:50;1.77;;;1.60;;
16294;SDS011;8255;49.560;8.244;2023-05-10T01:58:18;1.70;;;1.70;;
16294;SDS011;8255;49.560;8.244;2023-05-10T02:00:46;1.83;;;1.73;;
16294;SDS011;8255;49.560;8.244;2023-05-10T02:03:13;1.90;;;1.90;;
16294;SDS011;8255;49.560;8.244;2023-05-10T02:05:41;2.35;;;1.77;;
16294;SDS011;8255;49.560;8.244;2023-05-10T02:08:09;2.95;;;1.80;;
16294;SDS011;8255;49.560;8.244;2023-05-10T02:10:36;1.75;;;1.70;;
16294;SDS011;8255;49.560;8.244;2023-05-10T02:13:03;1.83;;;1.73;;
16294;SDS011;8255;49.560;8.244;2023-05-10T02:15:31;1.75;;;1.65;;
16294;SDS011;8255;49.560;8.244;2023-05-10T02:17:58;3.25;;;1.95;;
16294;SDS011;8255;49.560;8.244;2023-05-10T02:20:26;3.15;;;1.70;;
16294;SDS011;8255;49.560;8.244;2023-05-10T02:22:53;2.53;;;1.80;;
16294;SDS011;8255;49.560;8.244;2023-05-10T02:25:22;1.80;;;1.80;;
16294;SDS011;8255;49.560;8.244;2023-05-10T02:27:49;1.80;;;1.80;;
16294;SDS011;8255;49.560;8.244;2023-05-10T02:30:16;1.85;;;1.77;;
16294;SDS011;8255;49.560;8.244;2023-05-10T02:32:44;2.35;;;2.20;;
16294;SDS011;8255;49.560;8.244;2023-05-10T02:35:10;4.07;;;1.90;;
16294;SDS011;8255;49.560;8.244;2023-05-10T02:37:37;1.83;;;1.83;;
16294;SDS011;8255;49.560;8.244;2023-05-10T02:40:05;2.10;;;2.00;;
16294;SDS011;8255;49.560;8.244;2023-05-10T02:42:35;3.00;;;2.00;;
16294;SDS011;8255;49.560;8.244;2023-05-10T02:45:04;2.45;;;2.35;;
16294;SDS011;8255;49.560;8.244;2023-05-10T02:47:31;2.50;;;2.30;;
16294;SDS011;8255;49.560;8.244;2023-05-10T02:49:58;2.50;;;2.40;;
16294;SDS011;8255;49.560;8.244;2023-05-10T02:52:25;2.03;;;1.92;;
16294;SDS011;8255;49.560;8.244;2023-05-10T02:54:54;1.80;;;1.70;;
16294;SDS011;8255;49.560;8.244;2023-05-10T02:57:34;1.92;;;1.90;;
16294;SDS011;8255;49.560;8.244;2023-05-10T03:00:02;2.78;;;2.30;;
16294;SDS011;8255;49.560;8.244;2023-05-10T03:02:28;2.10;;;2.00;;
16294;SDS011;8255;49.560;8.244;2023-05-10T03:04:55;2.17;;;2.08;;
16294;SDS011;8255;49.560;8.244;2023-05-10T03:07:22;2.17;;;2.08;;
16294;SDS011;8255;49.560;8.244;2023-05-10T03:09:48;2.47;;;2.38;;
16294;SDS011;8255;49.560;8.244;2023-05-10T03:12:17;2.20;;;2.10;;
16294;SDS011;8255;49.560;8.244;2023-05-10T03:14:48;2.47;;;2.30;;
16294;SDS011;8255;49.560;8.244;2023-05-10T03:17:18;2.22;;;2.13;;
16294;SDS011;8255;49.560;8.244;2023-05-10T03:19:50;2.20;;;2.10;;
16294;SDS011;8255;49.560;8.244;2023-05-10T03:22:20;2.45;;;2.35;;
16294;SDS011;8255;49.560;8.244;2023-05-10T03:24:47;2.63;;;2.42;;
16294;SDS011;8255;49.560;8.244;2023-05-10T03:27:15;2.38;;;2.28;;
16294;SDS011;8255;49.560;8.244;2023-05-10T03:29:41;2.85;;;2.50;;
16294;SDS011;8255;49.560;8.244;2023-05-10T03:32:08;2.75;;;2.55;;
16294;SDS011;8255;49.560;8.244;2023-05-10T03:34:36;2.75;;;2.40;;
16294;SDS011;8255;49.560;8.244;2023-05-10T03:37:07;2.67;;;2.55;;
16294;SDS011;8255;49.560;8.244;2023-05-10T03:39:34;2.42;;;2.33;;
16294;SDS011;8255;49.560;8.244;2023-05-10T03:42:02;2.47;;;2.38;;
16294;SDS011;8255;49.560;8.244;2023-05-10T03:44:29;2.80;;;2.70;;
16294;SDS011;8255;49.560;8.244;2023-05-10T03:46:56;2.70;;;2.50;;
16294;SDS011;8255;49.560;8.244;2023-05-10T03:49:23;5.38;;;4.78;;
16294;SDS011;8255;49.560;8.244;2023-05-10T03:51:51;4.97;;;4.55;;
16294;SDS011;8255;49.560;8.244;2023-05-10T03:54:18;3.63;;;3.20;;
16294;SDS011;8255;49.560;8.244;2023-05-10T03:56:45;8.88;;;7.03;;
16294;SDS011;8255;49.560;8.244;2023-05-10T03:59:13;7.60;;;6.93;;
16294;SDS011;8255;49.560;8.244;2023-05-10T04:01:40;3.47;;;3.28;;
16294;SDS011;8255;49.560;8.244;2023-05-10T04:04:08;5.28;;;4.88;;
16294;SDS011;8255;49.560;8.244;2023-05-10T04:06:34;6.60;;;5.47;;
16294;SDS011;8255;49.560;8.244;2023-05-10T04:09:02;15.18;;;12.32;;
16294;SDS011;8255;49.560;8.244;2023-05-10T04:11:29;12.40;;;9.68;;
16294;SDS011;8255;49.560;8.244;2023-05-10T04:13:55;4.88;;;3.28;;
16294;SDS011;8255;49.560;8.244;2023-05-10T04:16:22;3.70;;;3.35;;
16294;SDS011;8255;49.560;8.244;2023-05-10T04:18:48;3.30;;;3.10;;
16294;SDS011;8255;49.560;8.244;2023-05-10T04:21:15;3.55;;;3.30;;
16294;SDS011;8255;49.560;8.244;2023-05-10T04:23:41;4.88;;;3.40;;
16294;SDS011;8255;49.560;8.244;2023-05-10T04:26:09;3.60;;;3.33;;
16294;SDS011;8255;49.560;8.244;2023-05-10T04:28:35;3.50;;;3.25;;
16294;SDS011;8255;49.560;8.244;2023-05-10T04:31:02;3.75;;;3.55;;
16294;SDS011;8255;49.560;8.244;2023-05-10T04:33:29;3.70;;;3.50;;
16294;SDS011;8255;49.560;8.244;2023-05-10T04:35:55;3.90;;;3.60;;
16294;SDS011;8255;49.560;8.244;2023-05-10T04:38:21;4.18;;;3.80;;
16294;SDS011;8255;49.560;8.244;2023-05-10T04:40:48;4.82;;;3.75;;
16294;SDS011;8255;49.560;8.244;2023-05-10T04:43:15;5.90;;;4.00;;
16294;SDS011;8255;49.560;8.244;2023-05-10T04:45:42;4.60;;;4.30;;
16294;SDS011;8255;49.560;8.244;2023-05-10T04:48:08;4.32;;;3.90;;
16294;SDS011;8255;49.560;8.244;2023-05-10T04:50:34;4.22;;;3.92;;
16294;SDS011;8255;49.560;8.244;2023-05-10T04:53:01;4.50;;;4.20;;
16294;SDS011;8255;49.560;8.244;2023-05-10T04:55:27;5.47;;;4.40;;
16294;SDS011;8255;49.560;8.244;2023-05-10T04:57:54;4.72;;;4.40;;
16294;SDS011;8255;49.560;8.244;2023-05-10T05:00:23;5.10;;;4.70;;
16294;SDS011;8255;49.560;8.244;2023-05-10T05:02:50;5.03;;;4.72;;
16294;SDS011;8255;49.560;8.244;2023-05-10T05:05:16;5.38;;;4.88;;
16294;SDS011;8255;49.560;8.244;2023-05-10T05:07:43;5.93;;;5.07;;
16294;SDS011;8255;49.560;8.244;2023-05-10T05:10:09;5.80;;;5.35;;
16294;SDS011;8255;49.560;8.244;2023-05-10T05:12:36;5.72;;;5.30;;
16294;SDS011;8255;49.560;8.244;2023-05-10T05:15:02;5.22;;;4.75;;
16294;SDS011;8255;49.560;8.244;2023-05-10T05:17:30;5.78;;;5.18;;
16294;SDS011;8255;49.560;8.244;2023-05-10T05:19:57;5.38;;;5.03;;
16294;SDS011;8255;49.560;8.244;2023-05-10T05:22:23;5.32;;;4.90;;
16294;SDS011;8255;49.560;8.244;2023-05-10T05:24:52;5.47;;;5.05;;
16294;SDS011;8255;49.560;8.244;2023-05-10T05:27:19;5.65;;;4.90;;
16294;SDS011;8255;49.560;8.244;2023-05-10T05:29:46;5.93;;;5.53;;
16294;SDS011;8255;49.560;8.244;2023-05-10T05:32:12;5.63;;;5.13;;
16294;SDS011;8255;49.560;8.244;2023-05-10T05:34:40;5.80;;;4.85;;
16294;SDS011;8255;49.560;8.244;2023-05-10T05:37:06;4.80;;;4.50;;
16294;SDS011;8255;49.560;8.244;2023-05-10T05:39:32;6.60;;;4.07;;
16294;SDS011;8255;49.560;8.244;2023-05-10T05:41:59;4.10;;;3.90;;
16294;SDS011;8255;49.560;8.244;2023-05-10T05:44:25;4.70;;;4.30;;
16294;SDS011;8255;49.560;8.244;2023-05-10T05:46:53;5.03;;;4.63;;
16294;SDS011;8255;49.560;8.244;2023-05-10T05:49:20;5.03;;;4.70;;
16294;SDS011;8255;49.560;8.244;2023-05-10T05:51:47;4.75;;;4.38;;
16294;SDS011;8255;49.560;8.244;2023-05-10T05:54:14;6.07;;;5.25;;
16294;SDS011;8255;49.560;8.244;2023-05-10T05:56:40;4.82;;;4.47;;
16294;SDS011;8255;49.560;8.244;2023-05-10T05:59:07;6.88;;;3.70;;
16294;SDS011;8255;49.560;8.244;2023-05-10T06:01:33;3.45;;;3.25;;
16294;SDS011;8255;49.560;8.244;2023-05-10T06:04:00;3.15;;;2.80;;
16294;SDS011;8255;49.560;8.244;2023-05-10T06:06:27;2.33;;;2.22;;
16294;SDS011;8255;49.560;8.244;2023-05-10T06:08:54;2.25;;;2.10;;
16294;SDS011;8255;49.560;8.244;2023-05-10T06:11:21;2.20;;;2.10;;
16294;SDS011;8255;49.560;8.244;2023-05-10T06:13:47;2.38;;;1.85;;
16294;SDS011;8255;49.560;8.244;2023-05-10T06:16:14;1.85;;;1.75;;
16294;SDS011;8255;49.560;8.244;2023-05-10T06:18:40;2.20;;;2.00;;
16294;SDS011;8255;49.560;8.244;2023-05-10T06:21:06;1.75;;;1.75;;
16294;SDS011;8255;49.560;8.244;2023-05-10T06:23:33;1.90;;;1.80;;
16294;SDS011;8255;49.560;8.244;2023-05-10T06:26:01;1.95;;;1.60;;
16294;SDS011;8255;49.560;8.244;2023-05-10T06:28:27;1.58;;;1.52;;
16294;SDS011;8255;49.560;8.244;2023-05-10T06:30:53;1.55;;;1.50;;
16294;SDS011;8255;49.560;8.244;2023-05-10T06:33:20;2.47;;;1.60;;
16294;SDS011;8255;49.560;8.244;2023-05-10T06:35:46;1.77;;;1.67;;
16294;SDS011;8255;49.560;8.244;2023-05-10T06:38:13;1.58;;;1.50;;
16294;SDS011;8255;49.560;8.244;2023-05-10T06:40:40;1.85;;;1.77;;
16294;SDS011;8255;49.560;8.244;2023-05-10T06:43:08;1.63;;;1.55;;
16294;SDS011;8255;49.560;8.244;2023-05-10T06:45:34;1.73;;;1.63;;
16294;SDS011;8255;49.560;8.244;2023-05-10T06:48:01;1.70;;;1.38;;
16294;SDS011;8255;49.560;8.244;2023-05-10T06:50:27;2.17;;;1.30;;
16294;SDS011;8255;49.560;8.244;2023-05-10T06:52:54;1.30;;;1.30;;
16294;SDS011;8255;49.560;8.244;2023-05-10T06:55:20;1.25;;;1.20;;
16294;SDS011;8255;49.560;8.244;2023-05-10T06:57:47;1.30;;;1.30;;
16294;SDS011;8255;49.560;8.244;2023-05-10T07:00:15;1.20;;;1.20;;
16294;SDS011;8255;49.560;8.244;2023-05-10T07:02:41;1.27;;;1.20;;
16294;SDS011;8255;49.560;8.244;2023-05-10T07:05:08;1.85;;;1.10;;
16294;SDS011;8255;49.560;8.244;2023-05-10T07:07:35;1.00;;;0.95;;
16294;SDS011;8255;49.560;8.244;2023-05-10T07:10:01;1.50;;;1.10;;
16294;SDS011;8255;49.560;8.244;2023-05-10T07:12:27;1.35;;;1.25;;
16294;SDS011;8255;49.560;8.244;2023-05-10T07:14:54;0.95;;;0.95;;
16294;SDS011;8255;49.560;8.244;2023-05-10T07:17:22;2.25;;;1.00;;
16294;SDS011;8255;49.560;8.244;2023-05-10T07:19:48;1.30;;;1.20;;
16294;SDS011;8255;49.560;8.244;2023-05-10T07:22:14;2.22;;;1.20;;
16294;SDS011;8255;49.560;8.244;2023-05-10T07:24:41;1.50;;;1.40;;
16294;SDS011;8255;49.560;8.244;2023-05-10T07:27:08;1.60;;;1.15;;
16294;SDS011;8255;49.560;8.244;2023-05-10T07:29:35;3.40;;;1.27;;
16294;SDS011;8255;49.560;8.244;2023-05-10T07:32:01;1.33;;;1.33;;
16294;SDS011;8255;49.560;8.244;2023-05-10T07:34:29;2.40;;;1.58;;
16294;SDS011;8255;49.560;8.244;2023-05-10T07:36:57;3.03;;;1.25;;
16294;SDS011;8255;49.560;8.244;2023-05-10T07:39:24;1.77;;;1.60;;
16294;SDS011;8255;49.560;8.244;2023-05-10T07:41:50;1.40;;;1.30;;
16294;SDS011;8255;49.560;8.244;2023-05-10T07:44:16;2.08;;;1.95;;
16294;SDS011;8255;49.560;8.244;2023-05-10T07:46:44;1.63;;;1.30;;
16294;SDS011;8255;49.560;8.244;2023-05-10T07:49:10;1.20;;;1.20;;
16294;SDS011;8255;49.560;8.244;2023-05-10T07:51:38;1.65;;;1.45;;
16294;SDS011;8255;49.560;8.244;2023-05-10T07:54:04;1.77;;;1.27;;
16294;SDS011;8255;49.560;8.244;2023-05-10T07:56:31;0.90;;;0.90;;
16294;SDS011;8255;49.560;8.244;2023-05-10T07:58:58;1.95;;;1.40;;
16294;SDS011;8255;49.560;8.244;2023-05-10T08:01:26;1.73;;;1.00;;
16294;SDS011;8255;49.560;8.244;2023-05-10T08:03:53;1.30;;;1.20;;
16294;SDS011;8255;49.560;8.244;2023-05-10T08:06:19;1.17;;;1.17;;
16294;SDS011;8255;49.560;8.244;2023-05-10T08:08:47;1.10;;;1.10;;
16294;SDS011;8255;49.560;8.244;2023-05-10T08:11:15;1.33;;;1.33;;
16294;SDS011;8255;49.560;8.244;2023-05-10T08:13:42;1.20;;;1.20;;
16294;SDS011;8255;49.560;8.244;2023-05-10T08:16:08;1.55;;;1.48;;
16294;SDS011;8255;49.560;8.244;2023-05-10T08:18:34;1.75;;;1.65;;
16294;SDS011;8255;49.560;8.244;2023-05-10T08:21:01;1.50;;;1.50;;
16294;SDS011;8255;49.560;8.244;2023-05-10T08:23:27;3.20;;;1.60;;
16294;SDS011;8255;49.560;8.244;2023-05-10T08:25:55;1.65;;;1.65;;
16294;SDS011;8255;49.560;8.244;2023-05-10T08:28:21;4.22;;;1.60;;
16294;SDS011;8255;49.560;8.244;2023-05-10T08:30:49;1.50;;;1.50;;
16294;SDS011;8255;49.560;8.244;2023-05-10T08:33:17;1.92;;;1.83;;
16294;SDS011;8255;49.560;8.244;2023-05-10T08:35:43;1.85;;;1.63;;
16294;SDS011;8255;49.560;8.244;2023-05-10T08:38:10;2.00;;;1.80;;
16294;SDS011;8255;49.560;8.244;2023-05-10T08:40:37;1.95;;;1.88;;
16294;SDS011;8255;49.560;8.244;2023-05-10T08:43:06;1.83;;;1.80;;
16294;SDS011;8255;49.560;8.244;2023-05-10T08:45:33;2.10;;;2.00;;
16294;SDS011;8255;49.560;8.244;2023-05-10T08:48:02;1.90;;;1.80;;
16294;SDS011;8255;49.560;8.244;2023-05-10T08:50:31;1.80;;;1.80;;
16294;SDS011;8255;49.560;8.244;2023-05-10T08:52:57;1.85;;;1.80;;
16294;SDS011;8255;49.560;8.244;2023-05-10T08:55:25;1.80;;;1.70;;
16294;SDS011;8255;49.560;8.244;2023-05-10T08:57:51;2.15;;;1.85;;
16294;SDS011;8255;49.560;8.244;2023-05-10T09:00:20;2.00;;;1.90;;
16294;SDS011;8255;49.560;8.244;2023-05-10T09:02:48;1.90;;;1.80;;
16294;SDS011;8255;49.560;8.244;2023-05-10T09:09:23;1.90;;;1.80;;
16294;SDS011;8255;49.560;8.244;2023-05-10T09:11:49;1.65;;;1.65;;
16294;SDS011;8255;49.560;8.244;2023-05-10T09:14:16;2.15;;;1.50;;
16294;SDS011;8255;49.560;8.244;2023-05-10T09:20:12;1.27;;;1.17;;
16294;SDS011;8255;49.560;8.244;2023-05-10T09:22:39;1.17;;;1.08;;
16294;SDS011;8255;49.560;8.244;2023-05-10T09:25:06;2.75;;;1.00;;
16294;SDS011;8255;49.560;8.244;2023-05-10T09:27:33;1.17;;;1.08;;
16294;SDS011;8255;49.560;8.244;2023-05-10T09:29:59;2.13;;;2.03;;
16294;SDS011;8255;49.560;8.244;2023-05-10T09:32:35;1.10;;;1.10;;
16294;SDS011;8255;49.560;8.244;2023-05-10T09:35:05;1.00;;;1.00;;
16294;SDS011;8255;49.560;8.244;2023-05-10T09:37:33;1.85;;;1.10;;
16294;SDS011;8255;49.560;8.244;2023-05-10T09:39:59;2.10;;;1.30;;
16294;SDS011;8255;49.560;8.244;2023-05-10T09:42:26;1.48;;;1.48;;
16294;SDS011;8255;49.560;8.244;2023-05-10T09:44:52;1.50;;;1.50;;
16294;SDS011;8255;49.560;8.244;2023-05-10T09:47:18;1.80;;;1.70;;
16294;SDS011;8255;49.560;8.244;2023-05-10T09:49:48;1.70;;;1.60;;
16294;SDS011;8255;49.560;8.244;2023-05-10T09:52:15;1.65;;;1.60;;
16294;SDS011;8255;49.560;8.244;2023-05-10T09:54:44;1.50;;;1.27;;
16294;SDS011;8255;49.560;8.244;2023-05-10T09:57:18;1.50;;;1.40;;
16294;SDS011;8255;49.560;8.244;2023-05-10T09:59:45;2.35;;;1.50;;
16294;SDS011;8255;49.560;8.244;2023-05-10T10:02:11;1.73;;;1.60;;
16294;SDS011;8255;49.560;8.244;2023-05-10T10:04:38;2.03;;;1.67;;
16294;SDS011;8255;49.560;8.244;2023-05-10T10:07:05;1.77;;;1.42;;
16294;SDS011;8255;49.560;8.244;2023-05-10T10:09:32;4.93;;;1.60;;
16294;SDS011;8255;49.560;8.244;2023-05-10T10:12:00;1.17;;;1.17;;
16294;SDS011;8255;49.560;8.244;2023-05-10T10:14:27;1.33;;;1.30;;
16294;SDS011;8255;49.560;8.244;2023-05-10T10:16:54;1.10;;;1.10;;
16294;SDS011;8255;49.560;8.244;2023-05-10T10:19:20;1.02;;;1.02;;
16294;SDS011;8255;49.560;8.244;2023-05-10T10:21:47;2.45;;;1.17;;
16294;SDS011;8255;49.560;8.244;2023-05-10T10:24:13;1.10;;;0.90;;
16294;SDS011;8255;49.560;8.244;2023-05-10T10:26:39;3.40;;;1.00;;
16294;SDS011;8255;49.560;8.244;2023-05-10T10:29:10;1.02;;;0.98;;
16294;SDS011;8255;49.560;8.244;2023-05-10T10:31:40;2.53;;;1.10;;
16294;SDS011;8255;49.560;8.244;2023-05-10T10:34:07;1.00;;;1.00;;
16294;SDS011;8255;49.560;8.244;2023-05-10T10:36:39;1.20;;;1.20;;
16294;SDS011;8255;49.560;8.244;2023-05-10T10:39:08;1.30;;;1.20;;
16294;SDS011;8255;49.560;8.244;2023-05-10T10:41:35;1.20;;;1.10;;
16294;SDS011;8255;49.560;8.244;2023-05-10T10:47:02;4.03;;;1.30;;
16294;SDS011;8255;49.560;8.244;2023-05-10T10:49:31;3.13;;;1.35;;
16294;SDS011;8255;49.560;8.244;2023-05-10T10:54:47;1.95;;;1.00;;
16294;SDS011;8255;49.560;8.244;2023-05-10T10:57:17;1.30;;;1.20;;
16294;SDS011;8255;49.560;8.244;2023-05-10T10:59:44;1.55;;;1.00;;
16294;SDS011;8255;49.560;8.244;2023-05-10T11:02:11;1.30;;;1.20;;
16294;SDS011;8255;49.560;8.244;2023-05-10T11:04:58;0.90;;;0.90;;
16294;SDS011;8255;49.560;8.244;2023-05-10T11:07:24;1.17;;;1.10;;
16294;SDS011;8255;49.560;8.244;2023-05-10T11:09:50;1.00;;;1.00;;
16294;SDS011;8255;49.560;8.244;2023-05-10T11:12:17;1.05;;;1.05;;
16294;SDS011;8255;49.560;8.244;2023-05-10T11:14:48;2.15;;;0.98;;
16294;SDS011;8255;49.560;8.244;2023-05-10T11:17:26;1.33;;;0.98;;
16294;SDS011;8255;49.560;8.244;2023-05-10T11:20:06;1.30;;;1.20;;
16294;SDS011;8255;49.560;8.244;2023-05-10T11:25:14;2.13;;;0.82;;
16294;SDS011;8255;49.560;8.244;2023-05-10T11:27:42;0.90;;;0.90;;
16294;SDS011;8255;49.560;8.244;2023-05-10T11:30:09;1.77;;;1.33;;
16294;SDS011;8255;49.560;8.244;2023-05-10T11:32:37;1.88;;;1.30;;
16294;SDS011;8255;49.560;8.244;2023-05-10T11:35:06;2.30;;;1.10;;
16294;SDS011;8255;49.560;8.244;2023-05-10T11:37:33;1.42;;;1.00;;
16294;SDS011;8255;49.560;8.244;2023-05-10T11:43:27;2.92;;;1.23;;
16294;SDS011;8255;49.560;8.244;2023-05-10T11:45:55;1.38;;;1.20;;
16294;SDS011;8255;49.560;8.244;2023-05-10T11:48:23;0.82;;;0.82;;
16294;SDS011;8255;49.560;8.244;2023-05-10T11:50:49;0.93;;;0.93;;
16294;SDS011;8255;49.560;8.244;2023-05-10T11:53:16;1.08;;;0.95;;
16294;SDS011;8255;49.560;8.244;2023-05-10T11:55:42;1.77;;;0.80;;
16294;SDS011;8255;49.560;8.244;2023-05-10T11:58:09;2.05;;;0.93;;
16294;SDS011;8255;49.560;8.244;2023-05-10T12:00:35;5.25;;;1.20;;
16294;SDS011;8255;49.560;8.244;2023-05-10T12:03:01;1.23;;;1.10;;
16294;SDS011;8255;49.560;8.244;2023-05-10T12:05:32;1.10;;;1.05;;
16294;SDS011;8255;49.560;8.244;2023-05-10T12:08:11;5.32;;;1.00;;
16294;SDS011;8255;49.560;8.244;2023-05-10T12:10:38;3.08;;;1.05;;
16294;SDS011;8255;49.560;8.244;2023-05-10T12:13:04;3.05;;;1.17;;
16294;SDS011;8255;49.560;8.244;2023-05-10T12:15:32;4.47;;;1.17;;
16294;SDS011;8255;49.560;8.244;2023-05-10T12:21:28;1.45;;;1.35;;
16294;SDS011;8255;49.560;8.244;2023-05-10T12:23:58;1.50;;;1.10;;
16294;SDS011;8255;49.560;8.244;2023-05-10T12:26:24;2.15;;;1.27;;
16294;SDS011;8255;49.560;8.244;2023-05-10T12:28:52;0.95;;;0.95;;
16294;SDS011;8255;49.560;8.244;2023-05-10T12:31:19;1.95;;;1.25;;
16294;SDS011;8255;49.560;8.244;2023-05-10T12:33:45;2.70;;;2.50;;
16294;SDS011;8255;49.560;8.244;2023-05-10T12:36:14;2.20;;;2.00;;
16294;SDS011;8255;49.560;8.244;2023-05-10T12:38:42;3.60;;;1.80;;
16294;SDS011;8255;49.560;8.244;2023-05-10T12:41:13;2.05;;;1.10;;
16294;SDS011;8255;49.560;8.244;2023-05-10T12:43:39;1.23;;;0.90;;
16294;SDS011;8255;49.560;8.244;2023-05-10T12:49:34;0.95;;;0.80;;
16294;SDS011;8255;49.560;8.244;2023-05-10T12:52:00;2.95;;;1.08;;
16294;SDS011;8255;49.560;8.244;2023-05-10T12:54:28;2.10;;;0.90;;
16294;SDS011;8255;49.560;8.244;2023-05-10T12:56:55;1.10;;;1.00;;
16294;SDS011;8255;49.560;8.244;2023-05-10T12:59:21;2.60;;;1.00;;
16294;SDS011;8255;49.560;8.244;2023-05-10T13:01:47;2.20;;;1.00;;
16294;SDS011;8255;49.560;8.244;2023-05-10T13:04:14;2.95;;;0.80;;
16294;SDS011;8255;49.560;8.244;2023-05-10T13:06:40;1.50;;;0.90;;
16294;SDS011;8255;49.560;8.244;2023-05-10T13:09:06;1.13;;;0.90;;
16294;SDS011;8255;49.560;8.244;2023-05-10T13:11:34;0.88;;;0.70;;
16294;SDS011;8255;49.560;8.244;2023-05-10T13:14:01;1.35;;;0.90;;
16294;SDS011;8255;49.560;8.244;2023-05-10T13:16:28;1.35;;;0.57;;
16294;SDS011;8255;49.560;8.244;2023-05-10T13:18:54;1.23;;;0.80;;
16294;SDS011;8255;49.560;8.244;2023-05-10T13:21:20;1.08;;;1.00;;
16294;SDS011;8255;49.560;8.244;2023-05-10T13:23:47;2.05;;;0.68;;
16294;SDS011;8255;49.560;8.244;2023-05-10T13:26:13;0.77;;;0.77;;
16294;SDS011;8255;49.560;8.244;2023-05-10T13:28:41;1.48;;;0.73;;
16294;SDS011;8255;49.560;8.244;2023-05-10T13:31:07;1.52;;;0.90;;
16294;SDS011;8255;49.560;8.244;2023-05-10T13:33:34;2.50;;;0.85;;
16294;SDS011;8255;49.560;8.244;2023-05-10T13:36:00;1.35;;;0.85;;
16294;SDS011;8255;49.560;8.244;2023-05-10T13:38:26;0.70;;;0.70;;
16294;SDS011;8255;49.560;8.244;2023-05-10T13:40:53;0.70;;;0.70;;
16294;SDS011;8255;49.560;8.244;2023-05-10T13:43:19;1.40;;;0.65;;
16294;SDS011;8255;49.560;8.244;2023-05-10T13:45:47;0.80;;;0.80;;
16294;SDS011;8255;49.560;8.244;2023-05-10T13:48:13;3.50;;;0.70;;
16294;SDS011;8255;49.560;8.244;2023-05-10T13:50:40;0.82;;;0.80;;
16294;SDS011;8255;49.560;8.244;2023-05-10T13:53:06;1.88;;;0.75;;
16294;SDS011;8255;49.560;8.244;2023-05-10T13:55:32;1.42;;;0.70;;
16294;SDS011;8255;49.560;8.244;2023-05-10T13:57:59;0.73;;;0.70;;
16294;SDS011;8255;49.560;8.244;2023-05-10T14:00:25;2.72;;;0.75;;
16294;SDS011;8255;49.560;8.244;2023-05-10T14:02:53;0.85;;;0.60;;
16294;SDS011;8255;49.560;8.244;2023-05-10T14:05:19;1.40;;;0.80;;
16294;SDS011;8255;49.560;8.244;2023-05-10T14:07:46;0.80;;;0.80;;
16294;SDS011;8255;49.560;8.244;2023-05-10T14:10:12;0.80;;;0.80;;
16294;SDS011;8255;49.560;8.244;2023-05-10T14:12:38;0.93;;;0.90;;
16294;SDS011;8255;49.560;8.244;2023-05-10T14:15:05;0.57;;;0.57;;
16294;SDS011;8255;49.560;8.244;2023-05-10T14:17:32;0.85;;;0.75;;
16294;SDS011;8255;49.560;8.244;2023-05-10T14:20:00;1.13;;;0.52;;
16294;SDS011;8255;49.560;8.244;2023-05-10T14:22:26;0.88;;;0.70;;
16294;SDS011;8255;49.560;8.244;2023-05-10T14:24:53;0.75;;;0.75;;
16294;SDS011;8255;49.560;8.244;2023-05-10T14:27:19;2.08;;;0.80;;
16294;SDS011;8255;49.560;8.244;2023-05-10T14:29:45;0.65;;;0.65;;
16294;SDS011;8255;49.560;8.244;2023-05-10T14:32:11;1.27;;;0.65;;
16294;SDS011;8255;49.560;8.244;2023-05-10T14:34:38;0.82;;;0.65;;
16294;SDS011;8255;49.560;8.244;2023-05-10T14:37:06;2.33;;;0.82;;
16294;SDS011;8255;49.560;8.244;2023-05-10T14:39:32;1.58;;;0.60;;
16294;SDS011;8255;49.560;8.244;2023-05-10T14:41:59;0.68;;;0.60;;
16294;SDS011;8255;49.560;8.244;2023-05-10T14:44:25;1.92;;;0.70;;
16294;SDS011;8255;49.560;8.244;2023-05-10T14:46:51;0.55;;;0.55;;
16294;SDS011;8255;49.560;8.244;2023-05-10T14:49:18;0.55;;;0.55;;
16294;SDS011;8255;49.560;8.244;2023-05-10T14:51:47;0.60;;;0.60;;
16294;SDS011;8255;49.560;8.244;2023-05-10T14:54:15;1.73;;;0.70;;
16294;SDS011;8255;49.560;8.244;2023-05-10T14:56:41;0.80;;;0.80;;
16294;SDS011;8255;49.560;8.244;2023-05-10T14:59:08;1.73;;;0.70;;
16294;SDS011;8255;49.560;8.244;2023-05-10T15:01:34;0.75;;;0.70;;
16294;SDS011;8255;49.560;8.244;2023-05-10T15:04:02;0.73;;;0.73;;
16294;SDS011;8255;49.560;8.244;2023-05-10T15:06:30;0.57;;;0.57;;
16294;SDS011;8255;49.560;8.244;2023-05-10T15:08:57;1.48;;;0.80;;
16294;SDS011;8255;49.560;8.244;2023-05-10T15:11:24;0.90;;;0.60;;
16294;SDS011;8255;49.560;8.244;2023-05-10T15:13:51;0.60;;;0.60;;
16294;SDS011;8255;49.560;8.244;2023-05-10T15:16:17;4.18;;;0.80;;
16294;SDS011;8255;49.560;8.244;2023-05-10T15:18:44;1.42;;;0.70;;
16294;SDS011;8255;49.560;8.244;2023-05-10T15:21:10;0.63;;;0.63;;
16294;SDS011;8255;49.560;8.244;2023-05-10T15:23:37;0.75;;;0.75;;
16294;SDS011;8255;49.560;8.244;2023-05-10T15:26:04;0.75;;;0.60;;
16294;SDS011;8255;49.560;8.244;2023-05-10T15:30:59;0.60;;;0.60;;
16294;SDS011;8255;49.560;8.244;2023-05-10T15:33:25;0.60;;;0.60;;
16294;SDS011;8255;49.560;8.244;2023-05-10T15:35:52;2.25;;;0.85;;
16294;SDS011;8255;49.560;8.244;2023-05-10T15:38:19;0.98;;;0.80;;